Bosque Farms, New Mexico
Current Conditions -  °F | °C
As of 4:52 AM on Thursday 27 Nov 2014 (Local Time) from KABQ Reporting Station
Few Clouds Few Clouds  
Wind Chill: 34°   Ceiling: Unl
Heat Index: 39°   Visibility: 10mi
Dew Point: 22°   Wind: 7mph
Humidity: 50%   Direction: 10°N
Pressure: 30.43"   Gusts: NA
Location:  34.85°N, 106.71°W
Report Text: KABQ 271152Z 01006KT 10SM FEW180 04/M06 A3043 RMK AO2 SLP278 T00391056 10078 20022 58003
Loading
Personal Weather Stations






























Interactive Weather Map New forecast layout! Learn more

10-Day Weather Forecast

Advertisements
Track Severe Weather on mobile